Data for 06/15/2015

Time Sea-Level Adjusted Pressure Absolute Pressure Temperature Relative Humidity Dew Point   
(mb) (inHg) (mb) (inHg) (C) (F) (%) (C) (F)
00:05 1023 30.21 852 25.16 11.8 53.2 66 5.6 42
00:10 1023 30.21 852 25.16 11.7 53 66 5.5 41.9
00:15 1023 30.21 852 25.16 11.6 52.9 66 5.5 42
00:20 1023 30.21 852 25.16 11.6 52.8 66 5.5 41.8
00:25 1023 30.21 852 25.16 11.7 53 65 5.5 41.8
00:30 1023 30.21 852 25.16 11.7 53.1 65 5.5 42
00:35 1023 30.21 852 25.16 11.6 53 65 5.4 41.7
00:40 1023 30.21 852 25.16 11.7 53 66 5.5 41.9
00:45 1023 30.21 852 25.16 11.6 52.8 66 5.4 41.8
00:50 1023 30.21 852 25.16 11.6 52.8 66 5.5 41.9
00:55 1023 30.21 852 25.16 11.5 52.7 67 5.5 41.9
01:00 1023 30.21 852 25.16 11.4 52.5 67 5.4 41.8
01:05 1023 30.21 852 25.16 11.3 52.4 67 5.4 41.8
01:10 1023 30.21 852 25.16 11.3 52.3 67 5.4 41.6
01:15 1023 30.21 852 25.16 11.3 52.4 67 5.5 41.8
01:20 1023 30.21 852 25.16 11.2 52.1 67 5.3 41.6
01:25 1023 30.21 852 25.16 11.2 52.1 67 5.4 41.7
01:30 1022 30.18 852 25.16 11.1 52.1 68 5.5 41.8
01:35 1023 30.21 852 25.16 11.1 51.9 68 5.4 41.7
01:40 1023 30.21 852 25.16 11 51.7 68 5.4 41.7
01:45 1023 30.21 852 25.16 11 51.7 68 5.4 41.7
01:50 1023 30.21 852 25.16 10.9 51.6 68 5.3 41.6
01:55 1023 30.21 852 25.16 10.8 51.5 68 5.2 41.4
02:00 1023 30.21 852 25.16 10.8 51.5 68 5.2 41.4
02:05 1023 30.21 852 25.16 10.7 51.3 68 5.2 41.4
02:10 1023 30.21 852 25.16 10.7 51.2 69 5.2 41.3
02:15 1023 30.21 852 25.16 10.6 51.1 69 5.1 41.2
02:20 1023 30.21 852 25.16 10.6 51.1 69 5.1 41.2
02:25 1023 30.21 852 25.16 10.6 51.1 69 5.1 41.2
02:30 1023 30.21 852 25.16 10.6 51 69 5.1 41.2
02:35 1023 30.21 852 25.16 10.6 51 69 5.2 41.3
02:40 1023 30.21 852 25.16 10.5 50.9 69 5.2 41.4
02:45 1023 30.21 852 25.16 10.4 50.8 70 5.2 41.3
02:50 1023 30.21 852 25.16 10.4 50.7 70 5.1 41.2
02:55 1023 30.21 852 25.16 10.3 50.6 70 5.1 41.2
03:00 1023 30.21 852 25.16 10.3 50.6 70 5.1 41.2
03:05 1023 30.21 852 25.16 10.3 50.5 70 5.1 41.1
03:10 1023 30.21 852 25.16 10.3 50.5 70 5 41
03:15 1023 30.21 852 25.16 10.3 50.6 70 5 41
03:20 1023 30.21 852 25.16 10.4 50.6 70 5.1 41.2
03:25 1023 30.21 852 25.16 10.3 50.5 70 5.1 41.2
03:30 1023 30.21 852 25.16 10.3 50.5 70 5.1 41.1
03:35 1023 30.21 852 25.16 10.3 50.5 69 5 41
03:40 1023 30.21 852 25.16 10.4 50.7 69 5.1 41.1
03:45 1023 30.21 852 25.16 10.3 50.6 70 5.1 41.1
03:50 1023 30.21 852 25.16 10.3 50.5 70 5.1 41.2
03:55 1023 30.21 852 25.16 10.2 50.3 70 5 40.9
04:00 1023 30.21 852 25.16 10.2 50.3 70 5 40.9
04:05 1023 30.21 852 25.16 10.1 50.2 70 4.9 40.8
04:10 1023 30.21 852 25.16 10.1 50.2 70 4.9 40.7
04:15 1023 30.21 852 25.16 10.1 50.1 69 4.8 40.6
04:20 1023 30.21 852 25.16 10.1 50.2 70 4.8 40.7
04:25 1023 30.21 852 25.16 10.1 50.1 69 4.8 40.6
04:30 1023 30.21 852 25.16 10 50 70 4.7 40.5
04:35 1023 30.21 852 25.16 10 50 70 4.7 40.5
04:40 1023 30.21 852 25.16 10 49.9 70 4.7 40.5
04:45 1023 30.21 852 25.16 9.9 49.9 70 4.7 40.5
04:50 1023 30.21 852 25.16 9.9 49.8 70 4.7 40.5
04:55 1023 30.21 852 25.16 9.8 49.7 70 4.7 40.5
05:00 1023 30.21 852 25.16 9.9 49.7 70 4.7 40.4
05:05 1023 30.21 852 25.16 9.9 49.8 70 4.6 40.3
05:10 1023 30.21 852 25.16 9.9 49.9 70 4.8 40.6
05:15 1023 30.21 852 25.16 9.9 49.9 69 4.6 40.2
05:20 1023 30.21 852 25.16 10 50 69 4.7 40.5
05:25 1023 30.21 852 25.16 10 50 70 4.7 40.5
05:30 1023 30.21 852 25.16 10 50 69 4.7 40.4
05:35 1023 30.21 852 25.16 10 50 69 4.7 40.4
05:40 1023 30.21 852 25.16 10.1 50.1 69 4.7 40.4
05:45 1023 30.21 852 25.16 10.2 50.3 68 4.6 40.2
05:50 1023 30.21 852 25.16 10.4 50.7 67 4.6 40.2
05:55 1023 30.21 852 25.16 10.6 51.1 66 4.5 40.1
06:00 1023 30.21 852 25.16 10.8 51.5 64 4.4 39.9
06:05 1023 30.21 852 25.16 10.9 51.6 64 4.4 39.9
06:10 1023 30.21 852 25.16 11.1 51.9 63 4.3 39.7
06:15 1023 30.21 852 25.16 11.1 52 63 4.4 39.8
06:20 1023 30.21 852 25.16 11.2 52.2 61 4.1 39.4
06:25 1023 30.21 852 25.16 11.4 52.5 61 4.1 39.4
06:30 1023 30.21 852 25.16 11.5 52.7 61 4.2 39.6
06:35 1023 30.21 852 25.16 11.7 53.1 60 4.2 39.5
06:40 1023 30.21 852 25.16 11.8 53.2 59 4.1 39.4
06:45 1023 30.21 852 25.16 11.9 53.4 59 4.2 39.5
06:50 1023 30.21 852 25.16 12.1 53.8 58 4.3 39.7
06:55 1023 30.21 852 25.16 12.1 53.7 59 4.3 39.8
07:00 1023 30.21 852 25.16 11.9 53.5 59 4.2 39.6
07:05 1023 30.21 852 25.16 12 53.5 59 4.3 39.7
07:10 1023 30.21 852 25.16 12.1 53.8 59 4.3 39.7
07:15 1023 30.21 852 25.16 12.5 54.4 57 4.3 39.8
07:20 1023 30.21 852 25.16 12.5 54.4 57 4.2 39.6
07:25 1023 30.21 852 25.16 12.4 54.2 57 4.2 39.5
07:30 1023 30.21 852 25.16 12.5 54.6 57 4.2 39.6
07:35 1023 30.21 852 25.16 12.5 54.4 57 4.2 39.5
07:40 1023 30.21 852 25.16 12.7 54.8 56 4.2 39.5
07:45 1023 30.21 852 25.16 12.5 54.5 57 4.2 39.6
07:50 1023 30.21 852 25.16 12.7 54.9 56 4.2 39.5
07:55 1023 30.21 852 25.16 12.8 55 56 4.2 39.5
08:00 1023 30.21 852 25.16 12.8 55 57 4.5 40
08:05 1023 30.21 852 25.16 13 55.4 54 4.1 39.4
08:10 1023 30.21 852 25.16 13 55.5 55 4.3 39.7
08:15 1023 30.21 852 25.16 13.3 55.9 55 4.4 40
08:20 1023 30.21 852 25.16 13.3 55.9 54 4.4 39.9
08:25 1023 30.21 852 25.16 13 55.5 55 4.4 39.9
08:30 1023 30.21 852 25.16 13 55.3 55 4.2 39.5
08:35 1023 30.21 852 25.16 13.1 55.6 55 4.3 39.8
08:40 1023 30.21 852 25.16 13 55.4 55 4.2 39.5
08:45 1023 30.21 852 25.16 13.1 55.5 55 4.4 39.9
08:50 1023 30.21 852 25.16 13.1 55.5 55 4.4 39.9
08:55 1023 30.21 852 25.16 13.2 55.7 54 4.1 39.5
09:00 1023 30.21 852 25.16 13.2 55.7 55 4.4 39.8
09:05 1023 30.21 852 25.16 13.3 55.9 55 4.6 40.2
09:10 1023 30.21 852 25.16 13.3 55.9 54 4.2 39.6
09:15 1023 30.21 852 25.16 13.4 56.1 54 4.5 40
09:20 1023 30.21 852 25.16 13.4 56 54 4.3 39.8
09:25 1023 30.21 852 25.16 13.4 56.1 55 4.6 40.2
09:30 1023 30.21 852 25.16 13.5 56.3 54 4.5 40.1
09:35 1023 30.21 852 25.16 13.6 56.4 54 4.4 39.9
09:40 1023 30.21 852 25.16 13.6 56.4 54 4.5 40.1
09:45 1022 30.18 852 25.16 13.6 56.6 54 4.5 40.2
09:50 1022 30.18 852 25.16 13.8 56.8 54 4.6 40.3
09:55 1022 30.18 852 25.16 13.8 56.8 53 4.5 40.1
10:00 1022 30.18 852 25.16 14 57.2 53 4.7 40.5
10:05 1022 30.18 852 25.16 13.8 56.8 54 4.6 40.3
10:10 1022 30.18 851 25.13 13.9 57.1 53 4.6 40.2
10:15 1022 30.18 851 25.13 13.9 57.1 54 4.7 40.5
10:20 1022 30.18 851 25.13 14 57.2 53 4.7 40.4
10:25 1022 30.18 851 25.13 13.9 56.9 55 4.9 40.9
10:30 1022 30.18 851 25.13 14.1 57.3 54 4.9 40.8
10:35 1022 30.18 851 25.13 14.4 58 53 5.1 41.2
10:40 1022 30.18 851 25.13 14.5 58 53 5 40.9
10:45 1022 30.18 851 25.13 14.3 57.7 54 5.1 41.2
10:50 1022 30.18 851 25.13 14.8 58.7 53 5.3 41.6
10:55 1022 30.18 851 25.13 14.6 58.2 54 5.3 41.6
11:00 1022 30.18 851 25.13 14.7 58.5 53 5.3 41.6
11:05 1022 30.18 851 25.13 15.1 59.1 52 5.3 41.6
11:10 1022 30.18 851 25.13 14.7 58.5 53 5.3 41.6
11:15 1022 30.18 851 25.13 14.5 58.1 52 4.9 40.9
11:20 1022 30.18 851 25.13 14.7 58.5 53 5.3 41.5
11:25 1022 30.18 851 25.13 14.8 58.7 53 5.4 41.6
11:30 1022 30.18 851 25.13 14.8 58.7 53 5.5 41.9
11:35 1022 30.18 851 25.13 14.8 58.6 52 5.2 41.3
11:40 1022 30.18 851 25.13 15.4 59.7 51 5.4 41.7
11:45 1022 30.18 851 25.13 15.5 59.9 51 5.6 42.1
11:50 1022 30.18 851 25.13 14.9 58.8 52 5.3 41.6
11:55 1022 30.18 851 25.13 15.2 59.4 53 5.8 42.4
12:00 1021 30.15 851 25.13 15.2 59.3 52 5.3 41.6
12:05 1021 30.15 851 25.13 15.3 59.5 53 5.7 42.2
12:10 1021 30.15 851 25.13 15.4 59.6 52 5.6 42.1
12:15 1021 30.15 851 25.13 15.2 59.3 53 5.8 42.5
12:20 1021 30.15 850 25.1 15.3 59.6 52 5.6 42.2
12:25 1021 30.15 850 25.1 15.3 59.6 53 5.8 42.5
12:30 1021 30.15 850 25.1 15.5 59.9 53 6.2 43.1
12:35 1021 30.15 850 25.1 15.4 59.6 53 5.8 42.4
12:40 1021 30.15 850 25.1 15.5 59.9 52 5.8 42.5
12:45 1021 30.15 850 25.1 15.4 59.7 53 5.9 42.6
12:50 1021 30.15 850 25.1 15.9 60.6 51 5.9 42.6
12:55 1021 30.15 850 25.1 15.9 60.5 52 6.1 43
13:00 1021 30.15 850 25.1 15.6 60 52 5.9 42.6
13:05 1021 30.15 850 25.1 15.6 60.1 52 5.9 42.6
13:10 1021 30.15 850 25.1 15.6 60 53 6.1 42.9
13:15 1021 30.15 850 25.1 15.5 59.9 53 6.1 43
13:20 1021 30.15 850 25.1 15.5 59.9 53 6.1 42.9
13:25 1021 30.15 850 25.1 15.5 60 53 6.1 43
13:30 1021 30.15 850 25.1 15.7 60.3 52 5.9 42.6
13:35 1021 30.15 850 25.1 15.6 60.1 53 6.2 43.1
13:40 1021 30.15 850 25.1 15.5 59.9 54 6.3 43.4
13:45 1021 30.15 850 25.1 15.4 59.8 54 6.2 43.2
13:50 1021 30.15 850 25.1 15.1 59.1 54 5.9 42.6
13:55 1021 30.15 850 25.1 15.2 59.4 55 6.3 43.4
14:00 1021 30.15 850 25.1 15.1 59.1 54 6 42.8
14:05 1021 30.15 850 25.1 15.4 59.8 54 6.3 43.3
14:10 1021 30.15 850 25.1 15.4 59.7 54 6.1 43
14:15 1021 30.15 850 25.1 15.2 59.3 55 6.2 43.1
14:20 1021 30.15 850 25.1 14.9 58.9 55 6 42.8
14:25 1021 30.15 850 25.1 15.3 59.5 54 6.2 43.2
14:30 1021 30.15 850 25.1 15.3 59.5 55 6.3 43.4
14:35 1021 30.15 850 25.1 15.4 59.6 54 6.2 43.1
14:40 1021 30.15 850 25.1 15.4 59.7 55 6.6 43.8
14:45 1021 30.15 850 25.1 15.2 59.4 55 6.5 43.6
14:50 1021 30.15 850 25.1 15 58.9 57 6.5 43.7
14:55 1020 30.12 850 25.1 14.9 58.7 57 6.4 43.5
15:00 1021 30.15 850 25.1 15.1 59.1 58 6.8 44.3
15:05 1020 30.12 850 25.1 15.3 59.5 55 6.5 43.7
15:10 1020 30.12 850 25.1 14.6 58.3 59 6.7 44.1
15:15 1020 30.12 850 25.1 14.7 58.4 58 6.4 43.6
15:20 1020 30.12 849 25.07 14.8 58.7 56 6.3 43.4
15:25 1020 30.12 849 25.07 14.8 58.7 58 6.6 43.9
15:30 1020 30.12 849 25.07 14.7 58.4 59 6.9 44.5
15:35 1020 30.12 849 25.07 14.5 58 60 6.8 44.3
15:40 1020 30.12 849 25.07 14.1 57.4 62 7 44.6
15:45 1020 30.12 849 25.07 13.9 57 62 6.8 44.3
15:50 1020 30.12 849 25.07 13.7 56.6 63 6.8 44.3
15:55 1020 30.12 849 25.07 13.4 56 64 6.7 44.1
16:00 1020 30.12 849 25.07 13.3 55.9 65 6.8 44.3
16:05 1020 30.12 849 25.07 13.1 55.6 66 6.9 44.3
16:10 1020 30.12 849 25.07 12.9 55.2 66 6.8 44.2
16:15 1020 30.12 849 25.07 12.7 54.8 67 6.7 44.1
16:20 1020 30.12 849 25.07 12.5 54.5 67 6.7 44
16:25 1020 30.12 849 25.07 12.4 54.4 68 6.7 44
16:30 1020 30.12 849 25.07 12.4 54.3 68 6.6 43.9
16:35 1020 30.12 850 25.1 12.3 54.1 69 6.7 44.1
16:40 1021 30.15 850 25.1 12.1 53.8 69 6.7 44.1
16:45 1021 30.15 850 25.1 12.1 53.7 69 6.7 44.1
16:50 1021 30.15 850 25.1 12 53.5 70 6.7 44
16:55 1021 30.15 850 25.1 11.9 53.5 70 6.7 44.1
17:00 1021 30.15 850 25.1 11.9 53.5 70 6.7 44
17:05 1021 30.15 851 25.13 11.9 53.5 70 6.8 44.2
17:10 1022 30.18 851 25.13 11.9 53.4 72 7 44.5
17:15 1021 30.15 851 25.13 11.7 53 74 7.3 45.1
17:20 1021 30.15 851 25.13 11.4 52.5 76 7.4 45.3
17:25 1021 30.15 850 25.1 11.2 52.2 78 7.6 45.7
17:30 1021 30.15 850 25.1 11.1 51.9 79 7.6 45.7
17:35 1020 30.12 850 25.1 10.9 51.7 79 7.4 45.4
17:40 1020 30.12 849 25.07 10.9 51.6 80 7.6 45.8
17:45 1019 30.09 849 25.07 10.8 51.5 80 7.5 45.5
17:50 1019 30.09 848 25.04 10.9 51.6 80 7.6 45.6
17:55 1020 30.12 849 25.07 11 51.9 78 7.4 45.4
18:00 1020 30.12 849 25.07 11.2 52.2 77 7.3 45.2
18:05 1020 30.12 849 25.07 11.4 52.5 75 7.2 44.9
18:10 1020 30.12 849 25.07 11.5 52.8 74 7 44.6
18:15 1020 30.12 849 25.07 11.7 53 73 7 44.7
18:20 1020 30.12 849 25.07 11.7 53 73 7 44.6
18:25 1020 30.12 849 25.07 11.6 52.9 74 7.1 44.8
18:30 1020 30.12 849 25.07 11.6 52.8 75 7.3 45.1
18:35 1020 30.12 849 25.07 11.4 52.5 75 7.2 44.9
18:40 1020 30.12 849 25.07 11.3 52.3 76 7.1 44.9
18:45 1020 30.12 849 25.07 11.2 52.1 77 7.3 45.1
18:50 1021 30.15 850 25.1 11.1 52 77 7.3 45.1
18:55 1021 30.15 850 25.1 11.1 51.9 77 7.3 45.1
19:00 1021 30.15 850 25.1 11 51.8 78 7.3 45.1
19:05 1021 30.15 850 25.1 10.9 51.7 79 7.4 45.3
19:10 1021 30.15 850 25.1 10.8 51.4 80 7.4 45.4
19:15 1021 30.15 850 25.1 10.7 51.3 80 7.4 45.3
19:20 1020 30.12 850 25.1 10.7 51.2 80 7.4 45.3
19:25 1020 30.12 849 25.07 10.5 51 81 7.5 45.5
19:30 1020 30.12 849 25.07 10.4 50.8 81 7.4 45.3
19:35 1019 30.09 849 25.07 10.4 50.7 82 7.5 45.5
19:40 1019 30.09 849 25.07 10.4 50.7 81 7.4 45.2
19:45 1019 30.09 849 25.07 10.4 50.7 81 7.3 45.1
19:50 1019 30.09 848 25.04 10.4 50.7 82 7.4 45.3
19:55 1019 30.09 849 25.07 10.4 50.7 81 7.2 45
20:00 1020 30.12 849 25.07 10.5 51 80 7.2 45
20:05 1020 30.12 849 25.07 10.6 51.1 79 7.2 45
20:10 1019 30.09 849 25.07 10.7 51.2 79 7.1 44.8
20:15 1019 30.09 848 25.04 10.7 51.3 78 7.1 44.8
20:20 1019 30.09 849 25.07 10.7 51.3 79 7.2 44.9
20:25 1020 30.12 849 25.07 10.7 51.2 78 7.1 44.8
20:30 1020 30.12 849 25.07 10.7 51.2 80 7.3 45.1
20:35 1021 30.15 850 25.1 10.5 50.9 81 7.3 45.1
20:40 1021 30.15 850 25.1 10.4 50.7 81 7.3 45.2
20:45 1021 30.15 850 25.1 10.3 50.6 82 7.3 45.2
20:50 1021 30.15 850 25.1 10.3 50.6 82 7.4 45.3
20:55 1021 30.15 850 25.1 10.3 50.6 82 7.3 45.2
21:00 1021 30.15 850 25.1 10.4 50.6 82 7.4 45.2
21:05 1021 30.15 850 25.1 10.4 50.7 81 7.4 45.2
21:10 1021 30.15 850 25.1 10.4 50.8 81 7.4 45.2
21:15 1021 30.15 850 25.1 10.5 50.8 82 7.5 45.4
21:20 1021 30.15 851 25.13 10.5 50.8 82 7.5 45.6
21:25 1022 30.18 851 25.13 10.5 50.8 82 7.4 45.4
21:30 1022 30.18 851 25.13 10.5 51 80 7.3 45.2
21:35 1022 30.18 851 25.13 10.6 51.1 81 7.6 45.6
21:40 1022 30.18 851 25.13 10.5 51 82 7.6 45.8
21:45 1022 30.18 851 25.13 10.4 50.8 83 7.6 45.7
21:50 1022 30.18 851 25.13 10.4 50.7 84 7.7 45.9
21:55 1022 30.18 851 25.13 10.3 50.5 84 7.8 46
22:00 1023 30.21 852 25.16 10.3 50.5 84 7.8 46
22:05 1023 30.21 852 25.16 10.3 50.5 85 7.8 46
22:10 1022 30.18 852 25.16 10.3 50.5 84 7.7 45.9
22:15 1022 30.18 852 25.16 10.3 50.6 83 7.5 45.6
22:20 1023 30.21 852 25.16 10.4 50.8 84 7.9 46.1
22:25 1022 30.18 852 25.16 10.3 50.6 85 8 46.3
22:30 1022 30.18 851 25.13 10.2 50.3 86 8 46.4
22:35 1022 30.18 851 25.13 10.1 50.2 87 8 46.4
22:40 1022 30.18 851 25.13 10 50.1 88 8.1 46.6
22:45 1022 30.18 851 25.13 9.9 49.9 88 8 46.4
22:50 1021 30.15 850 25.1 10 50 86 7.8 46.1
22:55 1021 30.15 850 25.1 10.1 50.1 86 7.8 46.1
23:00 1021 30.15 850 25.1 10.2 50.3 84 7.6 45.6
23:05 1021 30.15 850 25.1 10.3 50.6 83 7.7 45.8
23:10 1021 30.15 850 25.1 10.4 50.7 83 7.6 45.6
23:15 1020 30.12 849 25.07 10.5 50.8 82 7.6 45.7
23:20 1020 30.12 849 25.07 10.5 50.9 81 7.4 45.3
23:25 1020 30.12 849 25.07 10.7 51.2 80 7.5 45.4
23:30 1020 30.12 850 25.1 10.8 51.4 80 7.4 45.4
23:35 1020 30.12 850 25.1 10.8 51.5 79 7.4 45.4
23:40 1020 30.12 849 25.07 10.8 51.4 80 7.5 45.6
23:45 1020 30.12 849 25.07 10.7 51.3 80 7.4 45.3
23:50 1020 30.12 849 25.07 10.8 51.4 79 7.3 45.2
23:55 1020 30.12 849 25.07 10.8 51.5 79 7.3 45.1
24:00 1019 30.09 849 25.07 10.8 51.4 80 7.4 45.4